createdAt,value
2022-12-03T00:03:18.064Z,39.03
2022-12-03T00:08:19.931Z,37.50
2022-12-03T00:13:21.739Z,40.17
2022-12-03T00:18:23.504Z,37.03
2022-12-03T00:23:25.315Z,38.40
2022-12-03T00:28:27.327Z,37.30
2022-12-03T00:33:29.148Z,38.83
2022-12-03T00:38:30.919Z,40.63
2022-12-03T00:43:32.789Z,34.55
2022-12-03T00:48:34.740Z,35.40
2022-12-03T00:53:36.477Z,45.30
2022-12-03T00:58:38.216Z,40.03
2022-12-03T01:03:39.977Z,39.90
2022-12-03T01:08:41.717Z,38.75
2022-12-03T01:13:43.445Z,40.30
2022-12-03T01:18:46.257Z,34.40
2022-12-03T01:23:48.092Z,43.20
2022-12-03T01:28:49.859Z,43.10
2022-12-03T01:33:51.607Z,43.75
2022-12-03T01:38:53.334Z,42.65
2022-12-03T01:43:56.812Z,41.92
2022-12-03T01:48:58.772Z,37.63
2022-12-03T01:54:02.417Z,38.90
2022-12-03T01:59:04.185Z,36.13
2022-12-03T02:04:06.065Z,35.10
2022-12-03T02:09:11.167Z,35.03
2022-12-03T02:14:19.931Z,39.88
2022-12-03T02:19:26.710Z,36.13
2022-12-03T02:24:52.747Z,38.40
2022-12-03T02:29:55.020Z,33.05
2022-12-03T02:34:56.816Z,38.35
2022-12-03T02:40:02.898Z,35.08
2022-12-03T02:45:16.685Z,36.15
2022-12-03T02:50:26.248Z,38.85
2022-12-03T02:55:36.521Z,40.25
2022-12-03T03:00:39.758Z,41.40
2022-12-03T03:05:41.938Z,37.53
2022-12-03T03:10:44.650Z,42.85
2022-12-03T03:15:48.333Z,37.70
2022-12-03T03:20:50.289Z,37.90
2022-12-03T03:26:00.481Z,37.95
2022-12-03T03:31:04.183Z,42.88
2022-12-03T03:36:06.854Z,39.07
2022-12-03T03:41:10.099Z,38.97
2022-12-03T03:46:13.327Z,43.15
2022-12-03T03:51:17.279Z,41.22
2022-12-03T03:56:20.530Z,42.60
2022-12-03T04:01:23.827Z,46.28
2022-12-03T04:06:28.963Z,39.05
2022-12-03T04:11:50.972Z,39.60
2022-12-03T04:16:52.789Z,40.30
2022-12-03T04:22:13.469Z,39.50
2022-12-03T04:27:34.070Z,43.38
2022-12-03T04:32:54.600Z,42.03
2022-12-03T04:37:56.447Z,37.00
2022-12-03T04:42:58.200Z,43.45
2022-12-03T04:47:59.968Z,41.92
2022-12-03T04:53:01.701Z,40.78
2022-12-03T04:58:03.799Z,42.08
2022-12-03T05:03:05.635Z,37.63
2022-12-03T05:08:08.256Z,40.10
2022-12-03T05:13:10.137Z,42.88
2022-12-03T05:18:11.878Z,41.67
2022-12-03T05:23:14.508Z,40.90
2022-12-03T05:28:16.351Z,43.13
2022-12-03T05:33:18.504Z,36.22
2022-12-03T05:38:20.316Z,35.75
2022-12-03T05:43:22.218Z,35.53
2022-12-03T05:48:23.976Z,33.95
2022-12-03T05:53:25.829Z,35.63
2022-12-03T05:58:27.590Z,33.72
2022-12-03T06:03:29.452Z,36.25
2022-12-03T06:08:31.223Z,36.47
2022-12-03T06:13:32.961Z,32.90
2022-12-03T06:18:34.751Z,36.72
2022-12-03T06:23:37.311Z,32.15
2022-12-03T06:28:39.080Z,35.03
2022-12-03T06:33:40.800Z,31.63
2022-12-03T06:38:42.521Z,33.30
2022-12-03T06:43:44.277Z,31.70
2022-12-03T06:48:46.043Z,33.72
2022-12-03T06:53:47.779Z,33.08
2022-12-03T06:58:50.416Z,37.25
2022-12-03T07:03:52.273Z,35.20
2022-12-03T07:08:54.005Z,43.53
2022-12-03T07:14:00.080Z,40.45
2022-12-03T07:19:06.361Z,38.17
2022-12-03T07:24:08.483Z,42.05
2022-12-03T07:29:10.245Z,39.20
2022-12-03T07:34:12.181Z,40.55
2022-12-03T07:39:14.139Z,39.13
2022-12-03T07:44:15.918Z,37.55
2022-12-03T07:49:17.734Z,41.53
2022-12-03T07:54:20.582Z,39.90
2022-12-03T07:59:22.417Z,39.53
2022-12-03T08:04:24.172Z,35.45
2022-12-03T08:09:26.512Z,40.95
2022-12-03T08:14:28.547Z,37.38
2022-12-03T08:19:30.283Z,39.05
2022-12-03T08:24:32.055Z,38.65
2022-12-03T08:29:33.882Z,42.75
2022-12-03T08:34:40.687Z,40.25
2022-12-03T08:39:51.842Z,39.35
2022-12-03T08:44:55.342Z,44.83
2022-12-03T08:50:03.345Z,44.10
2022-12-03T08:55:32.358Z,36.10
2022-12-03T09:00:34.249Z,39.85
2022-12-03T09:05:37.257Z,36.10
2022-12-03T09:10:39.016Z,38.00
2022-12-03T09:15:40.931Z,37.80
2022-12-03T09:20:42.757Z,34.38
2022-12-03T09:25:44.522Z,39.53
2022-12-03T09:30:46.366Z,40.55
2022-12-03T09:35:48.267Z,39.25
2022-12-03T09:40:50.047Z,39.45
2022-12-03T09:45:51.916Z,36.80
2022-12-03T09:50:53.703Z,35.97
2022-12-03T09:55:59.399Z,30.75
2022-12-03T10:01:01.268Z,36.88
2022-12-03T10:06:03.101Z,30.25
2022-12-03T10:11:23.888Z,35.72
2022-12-03T10:16:29.701Z,25.60
2022-12-03T10:21:39.020Z,24.98
2022-12-03T10:26:40.995Z,34.05
2022-12-03T10:31:42.791Z,33.58
2022-12-03T10:36:44.571Z,29.80
2022-12-03T10:41:46.487Z,27.38
2022-12-03T10:47:09.333Z,31.58
2022-12-03T10:52:25.987Z,23.77
2022-12-03T10:57:28.183Z,35.28
2022-12-03T11:02:29.948Z,31.90
2022-12-03T11:07:32.151Z,31.00
2022-12-03T11:12:35.548Z,30.23
2022-12-03T11:17:49.497Z,31.08
2022-12-03T11:22:57.988Z,29.07
2022-12-03T11:28:12.203Z,33.10
2022-12-03T11:33:34.488Z,31.70
2022-12-03T11:38:53.704Z,29.10
2022-12-03T11:43:58.731Z,31.63
2022-12-03T11:49:00.617Z,28.70
2022-12-03T11:54:02.698Z,27.52
2022-12-03T11:59:12.525Z,28.85
2022-12-03T12:04:33.719Z,27.10
2022-12-03T12:09:53.470Z,28.92
2022-12-03T12:14:56.374Z,23.63
2022-12-03T12:20:12.477Z,23.75
2022-12-03T12:25:29.640Z,26.90
2022-12-03T12:30:31.594Z,26.98
2022-12-03T12:35:33.721Z,27.77
2022-12-03T12:40:38.426Z,28.20
2022-12-03T12:50:45.869Z,25.65
2022-12-03T12:55:48.896Z,24.60
2022-12-03T13:00:53.247Z,27.70
2022-12-03T13:05:56.712Z,25.30
2022-12-03T13:11:00.541Z,26.98
2022-12-03T13:16:22.106Z,23.70
2022-12-03T13:21:26.898Z,23.02
2022-12-03T13:26:40.781Z,21.17
2022-12-03T13:31:54.556Z,26.93
2022-12-03T13:36:58.439Z,23.80
2022-12-03T13:42:42.235Z,22.48
2022-12-03T13:47:48.363Z,19.98
2022-12-03T13:52:50.233Z,19.35
2022-12-03T13:57:52.371Z,19.00
2022-12-03T14:02:54.272Z,17.02
2022-12-03T14:08:02.117Z,16.67
2022-12-03T14:13:04.099Z,17.65
2022-12-03T14:18:05.898Z,16.98
2022-12-03T14:23:07.690Z,18.65
2022-12-03T14:28:10.065Z,14.90
2022-12-03T14:33:11.902Z,14.43
2022-12-03T14:38:13.699Z,15.57
2022-12-03T14:43:15.455Z,13.32
2022-12-03T14:48:17.229Z,15.38
2022-12-03T14:53:22.690Z,16.33
2022-12-03T14:58:27.528Z,14.05
2022-12-03T15:03:29.271Z,14.52
2022-12-03T15:08:31.052Z,15.98
2022-12-03T15:13:32.923Z,14.32
2022-12-03T15:18:35.320Z,16.98
2022-12-03T15:23:37.093Z,15.55
2022-12-03T15:28:38.852Z,16.00
2022-12-03T15:33:40.569Z,15.68
2022-12-03T15:38:42.431Z,13.90
2022-12-03T15:43:44.178Z,13.98
2022-12-03T15:48:46.376Z,14.20
2022-12-03T15:53:48.296Z,16.45
2022-12-03T15:58:50.033Z,13.65
2022-12-03T16:03:51.787Z,14.48
2022-12-03T16:08:53.534Z,14.13
2022-12-03T16:13:55.316Z,16.38
2022-12-03T16:18:57.082Z,16.52
2022-12-03T16:24:00.293Z,15.52
2022-12-03T16:29:02.103Z,19.20
2022-12-03T16:34:03.935Z,13.30
2022-12-03T16:39:06.167Z,20.20
2022-12-03T16:44:09.648Z,14.57
2022-12-03T16:49:11.494Z,13.82
2022-12-03T16:54:13.257Z,10.30
2022-12-03T16:59:15.031Z,17.73
2022-12-03T17:04:16.758Z,13.32
2022-12-03T17:09:20.181Z,12.43
2022-12-03T17:14:21.950Z,14.38
2022-12-03T17:19:23.710Z,13.60
2022-12-03T17:24:25.495Z,13.63
2022-12-03T17:29:27.227Z,12.45
2022-12-03T17:34:28.971Z,14.13
2022-12-03T17:39:30.690Z,13.15
2022-12-03T17:44:32.480Z,14.70
2022-12-03T17:49:34.222Z,12.55
2022-12-03T17:54:55.553Z,13.60
2022-12-03T17:59:59.493Z,13.65
2022-12-03T18:05:01.315Z,11.45
2022-12-03T18:10:03.249Z,15.85
2022-12-03T18:15:05.429Z,17.13
2022-12-03T18:20:07.737Z,15.13
2022-12-03T18:25:10.033Z,12.82
2022-12-03T18:30:12.238Z,13.95
2022-12-03T18:35:14.240Z,13.07
2022-12-03T18:40:24.723Z,14.60
2022-12-03T18:45:27.954Z,14.43
2022-12-03T18:50:29.900Z,14.38
2022-12-03T18:55:35.421Z,15.85
2022-12-03T19:00:38.314Z,16.02
2022-12-03T19:05:40.176Z,14.43
2022-12-03T19:10:43.030Z,13.50
2022-12-03T19:15:46.272Z,13.13
2022-12-03T19:20:48.416Z,15.93
2022-12-03T19:25:57.775Z,13.93
2022-12-03T19:31:12.855Z,15.93
2022-12-03T19:36:24.082Z,15.70
2022-12-03T19:41:28.432Z,14.82
2022-12-03T19:46:30.706Z,15.70
2022-12-03T19:51:35.310Z,13.40
2022-12-03T19:56:38.161Z,15.10
2022-12-03T20:01:40.783Z,13.32
2022-12-03T20:06:42.773Z,14.07
2022-12-03T20:11:45.780Z,16.00
2022-12-03T20:16:47.915Z,15.80
2022-12-03T20:21:49.687Z,16.60
2022-12-03T20:26:51.441Z,18.48
2022-12-03T20:31:53.285Z,17.75
2022-12-03T20:36:55.133Z,16.35
2022-12-03T20:41:56.943Z,16.02
2022-12-03T20:46:58.764Z,19.73
2022-12-03T20:52:04.308Z,17.15
2022-12-03T20:57:06.611Z,17.58
2022-12-03T21:02:09.644Z,17.63
2022-12-03T21:07:11.448Z,18.90
2022-12-03T21:12:13.157Z,17.20
2022-12-03T21:17:14.951Z,17.15
2022-12-03T21:22:16.769Z,20.50
2022-12-03T21:27:21.808Z,18.33
2022-12-03T21:32:23.840Z,16.98
2022-12-03T21:37:25.556Z,16.92
2022-12-03T21:42:36.043Z,17.88
2022-12-03T21:47:39.284Z,17.10
2022-12-03T21:52:41.340Z,19.08
2022-12-03T21:57:43.215Z,19.60
2022-12-03T22:02:45.158Z,21.52
2022-12-03T22:07:47.143Z,18.52
2022-12-03T22:12:48.916Z,20.65
2022-12-03T22:17:50.695Z,19.92
2022-12-03T22:22:52.433Z,17.33
2022-12-03T22:27:54.179Z,19.63
2022-12-03T22:32:55.930Z,19.75
2022-12-03T22:37:57.689Z,18.95
2022-12-03T22:42:59.429Z,18.48
2022-12-03T22:48:02.626Z,19.88
2022-12-03T22:53:04.362Z,18.42
2022-12-03T22:58:06.727Z,17.73
2022-12-03T23:03:08.789Z,21.10
2022-12-03T23:08:13.802Z,21.35
2022-12-03T23:13:16.483Z,19.13
2022-12-03T23:18:19.869Z,19.45
2022-12-03T23:23:23.998Z,19.15
2022-12-03T23:28:26.697Z,19.73
2022-12-03T23:33:29.000Z,20.95
2022-12-03T23:38:30.738Z,18.23
2022-12-03T23:43:32.485Z,18.65
2022-12-03T23:48:34.323Z,18.40
2022-12-03T23:53:37.381Z,19.52
2022-12-03T23:58:39.335Z,17.90
